sensor_id;sensor_type;location;lat;lon;timestamp;pressure;altitude;pressure_sealevel;temperature;humidity
44138;BME280;29800;55.942;37.314;2023-09-19T00:00:22;100026.75;;;8.42;81.80
44138;BME280;29800;55.942;37.314;2023-09-19T00:02:57;100023.28;;;8.53;82.28
44138;BME280;29800;55.942;37.314;2023-09-19T00:05:28;100024.31;;;8.52;82.16
44138;BME280;29800;55.942;37.314;2023-09-19T00:07:56;100016.06;;;8.59;82.18
44138;BME280;29800;55.942;37.314;2023-09-19T00:10:27;100016.59;;;8.68;82.43
44138;BME280;29800;55.942;37.314;2023-09-19T00:12:58;100019.44;;;8.73;82.90
44138;BME280;29800;55.942;37.314;2023-09-19T00:15:37;100024.94;;;8.85;83.22
44138;BME280;29800;55.942;37.314;2023-09-19T00:18:05;100027.00;;;8.89;83.43
44138;BME280;29800;55.942;37.314;2023-09-19T00:20:35;100020.09;;;8.98;83.81
44138;BME280;29800;55.942;37.314;2023-09-19T00:23:02;100016.00;;;9.08;83.68
44138;BME280;29800;55.942;37.314;2023-09-19T00:25:30;100021.00;;;9.11;83.54
44138;BME280;29800;55.942;37.314;2023-09-19T00:27:58;100017.91;;;9.19;83.91
44138;BME280;29800;55.942;37.314;2023-09-19T00:30:26;100019.97;;;9.24;83.42
44138;BME280;29800;55.942;37.314;2023-09-19T00:32:53;100012.72;;;9.29;84.11
44138;BME280;29800;55.942;37.314;2023-09-19T00:35:21;100012.38;;;9.37;83.97
44138;BME280;29800;55.942;37.314;2023-09-19T00:37:52;100016.88;;;9.44;84.25
44138;BME280;29800;55.942;37.314;2023-09-19T00:40:19;100015.09;;;9.49;84.34
44138;BME280;29800;55.942;37.314;2023-09-19T00:42:46;100008.47;;;9.57;84.08
44138;BME280;29800;55.942;37.314;2023-09-19T00:45:14;100016.53;;;9.64;84.35
44138;BME280;29800;55.942;37.314;2023-09-19T00:47:47;100022.28;;;9.74;84.21
44138;BME280;29800;55.942;37.314;2023-09-19T00:50:19;100018.44;;;9.75;83.88
44138;BME280;29800;55.942;37.314;2023-09-19T00:52:48;100012.03;;;9.81;83.86
44138;BME280;29800;55.942;37.314;2023-09-19T00:55:17;100020.00;;;9.83;83.73
44138;BME280;29800;55.942;37.314;2023-09-19T00:57:47;100017.38;;;9.88;83.92
44138;BME280;29800;55.942;37.314;2023-09-19T01:00:16;100014.75;;;9.93;83.63
44138;BME280;29800;55.942;37.314;2023-09-19T01:02:47;100009.06;;;9.94;83.53
44138;BME280;29800;55.942;37.314;2023-09-19T01:05:14;100008.56;;;9.98;83.54
44138;BME280;29800;55.942;37.314;2023-09-19T01:07:41;100010.84;;;10.01;83.13
44138;BME280;29800;55.942;37.314;2023-09-19T01:10:09;100016.66;;;10.04;83.12
44138;BME280;29800;55.942;37.314;2023-09-19T01:17:48;100016.03;;;10.14;83.01
44138;BME280;29800;55.942;37.314;2023-09-19T01:20:25;100016.38;;;10.18;82.78
44138;BME280;29800;55.942;37.314;2023-09-19T01:31:21;99998.06;;;10.30;82.32
44138;BME280;29800;55.942;37.314;2023-09-19T01:34:00;99999.00;;;10.36;82.27
44138;BME280;29800;55.942;37.314;2023-09-19T01:36:30;100000.09;;;10.35;82.17
44138;BME280;29800;55.942;37.314;2023-09-19T01:38:57;99993.31;;;10.37;82.33
44138;BME280;29800;55.942;37.314;2023-09-19T01:41:33;99985.66;;;10.39;82.53
44138;BME280;29800;55.942;37.314;2023-09-19T01:44:06;99989.03;;;10.41;82.15
44138;BME280;29800;55.942;37.314;2023-09-19T01:46:40;99992.69;;;10.47;82.35
44138;BME280;29800;55.942;37.314;2023-09-19T01:49:18;99983.25;;;10.55;82.25
44138;BME280;29800;55.942;37.314;2023-09-19T01:54:32;99965.97;;;10.54;82.10
44138;BME280;29800;55.942;37.314;2023-09-19T01:57:07;99957.53;;;10.56;82.02
44138;BME280;29800;55.942;37.314;2023-09-19T01:59:41;99963.00;;;10.56;81.60
44138;BME280;29800;55.942;37.314;2023-09-19T02:02:10;99961.84;;;10.52;81.19
44138;BME280;29800;55.942;37.314;2023-09-19T02:04:36;99960.16;;;10.51;81.26
44138;BME280;29800;55.942;37.314;2023-09-19T02:07:03;99963.75;;;10.51;81.04
44138;BME280;29800;55.942;37.314;2023-09-19T02:09:31;99970.06;;;10.52;80.78
44138;BME280;29800;55.942;37.314;2023-09-19T02:12:02;99964.34;;;10.53;80.49
44138;BME280;29800;55.942;37.314;2023-09-19T02:14:30;99959.34;;;10.50;80.33
44138;BME280;29800;55.942;37.314;2023-09-19T02:16:56;99966.97;;;10.48;80.23
44138;BME280;29800;55.942;37.314;2023-09-19T02:19:23;99966.97;;;10.48;80.17
44138;BME280;29800;55.942;37.314;2023-09-19T02:21:49;99963.41;;;10.47;80.25
44138;BME280;29800;55.942;37.314;2023-09-19T02:24:16;99957.34;;;10.45;79.90
44138;BME280;29800;55.942;37.314;2023-09-19T02:26:42;99947.97;;;10.41;79.90
44138;BME280;29800;55.942;37.314;2023-09-19T02:29:09;99951.19;;;10.38;79.73
44138;BME280;29800;55.942;37.314;2023-09-19T02:31:39;99954.75;;;10.39;80.02
44138;BME280;29800;55.942;37.314;2023-09-19T02:34:08;99956.66;;;10.38;80.07
44138;BME280;29800;55.942;37.314;2023-09-19T02:36:35;99959.16;;;10.40;79.85
44138;BME280;29800;55.942;37.314;2023-09-19T02:39:02;99955.00;;;10.37;79.92
44138;BME280;29800;55.942;37.314;2023-09-19T02:41:29;99955.00;;;10.37;80.16
44138;BME280;29800;55.942;37.314;2023-09-19T02:43:55;99946.78;;;10.37;80.32
44138;BME280;29800;55.942;37.314;2023-09-19T02:46:22;99947.84;;;10.36;80.29
44138;BME280;29800;55.942;37.314;2023-09-19T02:48:48;99956.31;;;10.35;80.33
44138;BME280;29800;55.942;37.314;2023-09-19T02:51:14;99954.16;;;10.37;80.42
44138;BME280;29800;55.942;37.314;2023-09-19T02:53:40;99959.97;;;10.40;80.71
44138;BME280;29800;55.942;37.314;2023-09-19T02:56:09;99953.09;;;10.38;80.68
44138;BME280;29800;55.942;37.314;2023-09-19T02:58:37;99952.84;;;10.39;80.60
44138;BME280;29800;55.942;37.314;2023-09-19T03:01:10;99951.63;;;10.47;80.90
44138;BME280;29800;55.942;37.314;2023-09-19T03:03:41;99955.31;;;10.53;81.11
44138;BME280;29800;55.942;37.314;2023-09-19T03:06:07;99954.22;;;10.54;81.08
44138;BME280;29800;55.942;37.314;2023-09-19T03:08:36;99960.03;;;10.57;80.96
44138;BME280;29800;55.942;37.314;2023-09-19T03:11:06;99957.03;;;10.59;80.61
44138;BME280;29800;55.942;37.314;2023-09-19T03:13:34;99960.38;;;10.61;80.75
44138;BME280;29800;55.942;37.314;2023-09-19T03:16:03;99953.56;;;10.63;80.61
44138;BME280;29800;55.942;37.314;2023-09-19T03:18:34;99952.28;;;10.66;80.38
44138;BME280;29800;55.942;37.314;2023-09-19T03:21:01;99953.09;;;10.66;80.37
44138;BME280;29800;55.942;37.314;2023-09-19T03:23:29;99950.34;;;10.66;80.17
44138;BME280;29800;55.942;37.314;2023-09-19T03:25:56;99942.97;;;10.67;80.15
44138;BME280;29800;55.942;37.314;2023-09-19T03:28:25;99950.09;;;10.68;80.26
44138;BME280;29800;55.942;37.314;2023-09-19T03:31:05;99949.72;;;10.76;80.51
44138;BME280;29800;55.942;37.314;2023-09-19T03:33:35;99945.78;;;10.72;80.52
44138;BME280;29800;55.942;37.314;2023-09-19T03:36:02;99949.94;;;10.75;80.22
44138;BME280;29800;55.942;37.314;2023-09-19T03:38:34;99952.44;;;10.76;79.87
44138;BME280;29800;55.942;37.314;2023-09-19T03:41:01;99952.78;;;10.80;79.94
44138;BME280;29800;55.942;37.314;2023-09-19T03:43:28;99945.13;;;10.82;79.77
44138;BME280;29800;55.942;37.314;2023-09-19T03:45:55;99946.47;;;10.79;79.57
44138;BME280;29800;55.942;37.314;2023-09-19T03:48:22;99949.22;;;10.79;79.34
44138;BME280;29800;55.942;37.314;2023-09-19T03:50:50;99946.72;;;10.78;79.52
44138;BME280;29800;55.942;37.314;2023-09-19T03:53:19;99949.78;;;10.81;79.43
44138;BME280;29800;55.942;37.314;2023-09-19T03:55:45;99944.81;;;10.78;79.34
44138;BME280;29800;55.942;37.314;2023-09-19T03:58:12;99935.53;;;10.79;79.45
44138;BME280;29800;55.942;37.314;2023-09-19T04:00:39;99935.88;;;10.83;79.48
44138;BME280;29800;55.942;37.314;2023-09-19T04:03:05;99933.69;;;10.85;79.39
44138;BME280;29800;55.942;37.314;2023-09-19T04:05:33;99932.88;;;10.84;79.35
44138;BME280;29800;55.942;37.314;2023-09-19T04:08:00;99927.41;;;10.84;79.45
44138;BME280;29800;55.942;37.314;2023-09-19T04:10:26;99921.44;;;10.88;79.63
44138;BME280;29800;55.942;37.314;2023-09-19T04:12:55;99920.94;;;10.91;79.62
44138;BME280;29800;55.942;37.314;2023-09-19T04:15:23;99923.69;;;10.91;79.56
44138;BME280;29800;55.942;37.314;2023-09-19T04:17:53;99925.31;;;10.92;79.45
44138;BME280;29800;55.942;37.314;2023-09-19T04:20:19;99924.84;;;10.95;79.78
44138;BME280;29800;55.942;37.314;2023-09-19T04:22:46;99919.94;;;10.97;79.48
44138;BME280;29800;55.942;37.314;2023-09-19T04:25:13;99921.34;;;10.99;79.54
44138;BME280;29800;55.942;37.314;2023-09-19T04:27:39;99920.03;;;11.02;79.54
44138;BME280;29800;55.942;37.314;2023-09-19T04:30:08;99923.59;;;11.02;79.59
44138;BME280;29800;55.942;37.314;2023-09-19T04:32:38;99914.63;;;11.07;79.59
44138;BME280;29800;55.942;37.314;2023-09-19T04:35:09;99914.97;;;11.11;79.71
44138;BME280;29800;55.942;37.314;2023-09-19T04:37:39;99913.13;;;11.16;80.00
44138;BME280;29800;55.942;37.314;2023-09-19T04:40:07;99908.25;;;11.18;79.60
44138;BME280;29800;55.942;37.314;2023-09-19T04:42:45;99908.00;;;11.20;79.62
44138;BME280;29800;55.942;37.314;2023-09-19T04:45:12;99901.16;;;11.22;79.46
44138;BME280;29800;55.942;37.314;2023-09-19T04:47:38;99906.16;;;11.26;79.65
44138;BME280;29800;55.942;37.314;2023-09-19T04:50:09;99903.00;;;11.34;79.82
44138;BME280;29800;55.942;37.314;2023-09-19T04:52:40;99906.31;;;11.36;79.87
44138;BME280;29800;55.942;37.314;2023-09-19T04:55:14;99903.63;;;11.41;79.92
44138;BME280;29800;55.942;37.314;2023-09-19T04:57:46;99900.69;;;11.65;79.36
44138;BME280;29800;55.942;37.314;2023-09-19T05:00:15;99900.47;;;11.49;79.21
44138;BME280;29800;55.942;37.314;2023-09-19T05:02:43;99895.22;;;11.48;79.44
44138;BME280;29800;55.942;37.314;2023-09-19T05:05:10;99908.44;;;11.51;79.71
44138;BME280;29800;55.942;37.314;2023-09-19T05:07:43;99901.63;;;11.53;79.66
44138;BME280;29800;55.942;37.314;2023-09-19T05:10:10;99897.28;;;11.57;79.36
44138;BME280;29800;55.942;37.314;2023-09-19T05:12:37;99902.25;;;11.61;79.32
44138;BME280;29800;55.942;37.314;2023-09-19T05:15:05;99896.59;;;11.67;79.66
44138;BME280;29800;55.942;37.314;2023-09-19T05:17:33;99898.84;;;11.70;79.68
44138;BME280;29800;55.942;37.314;2023-09-19T05:20:04;99895.66;;;11.78;79.61
44138;BME280;29800;55.942;37.314;2023-09-19T05:22:42;99895.41;;;11.80;79.85
44138;BME280;29800;55.942;37.314;2023-09-19T05:25:12;99887.22;;;11.85;79.86
44138;BME280;29800;55.942;37.314;2023-09-19T05:27:45;99879.00;;;11.85;79.79
44138;BME280;29800;55.942;37.314;2023-09-19T05:30:11;99877.78;;;11.93;79.95
44138;BME280;29800;55.942;37.314;2023-09-19T05:32:40;99877.06;;;12.03;79.94
44138;BME280;29800;55.942;37.314;2023-09-19T05:35:07;99881.59;;;12.14;79.63
44138;BME280;29800;55.942;37.314;2023-09-19T05:37:35;99880.66;;;12.30;80.01
44138;BME280;29800;55.942;37.314;2023-09-19T05:40:02;99885.19;;;12.42;79.42
44138;BME280;29800;55.942;37.314;2023-09-19T05:42:33;99888.91;;;12.58;78.86
44138;BME280;29800;55.942;37.314;2023-09-19T05:44:59;99883.81;;;12.72;79.09
44138;BME280;29800;55.942;37.314;2023-09-19T05:47:26;99889.38;;;12.82;78.61
44138;BME280;29800;55.942;37.314;2023-09-19T05:49:52;99882.03;;;12.87;78.16
44138;BME280;29800;55.942;37.314;2023-09-19T05:52:19;99879.59;;;12.91;77.96
44138;BME280;29800;55.942;37.314;2023-09-19T05:54:45;99883.47;;;12.95;77.57
44138;BME280;29800;55.942;37.314;2023-09-19T05:57:12;99879.09;;;12.99;77.36
44138;BME280;29800;55.942;37.314;2023-09-19T05:59:38;99876.94;;;13.06;77.17
44138;BME280;29800;55.942;37.314;2023-09-19T06:02:06;99879.78;;;13.17;77.75
44138;BME280;29800;55.942;37.314;2023-09-19T06:04:32;99875.94;;;13.18;77.04
44138;BME280;29800;55.942;37.314;2023-09-19T06:06:59;99887.56;;;13.25;76.82
44138;BME280;29800;55.942;37.314;2023-09-19T06:09:26;99892.81;;;13.32;77.16
44138;BME280;29800;55.942;37.314;2023-09-19T06:11:53;99885.47;;;13.42;76.95
44138;BME280;29800;55.942;37.314;2023-09-19T06:14:21;99879.47;;;13.51;77.02
44138;BME280;29800;55.942;37.314;2023-09-19T06:16:49;99887.22;;;13.59;76.51
44138;BME280;29800;55.942;37.314;2023-09-19T06:19:16;99879.84;;;13.65;76.46
44138;BME280;29800;55.942;37.314;2023-09-19T06:21:42;99879.59;;;13.71;76.15
44138;BME280;29800;55.942;37.314;2023-09-19T06:24:11;99875.22;;;13.81;75.80
44138;BME280;29800;55.942;37.314;2023-09-19T06:26:37;99873.34;;;13.91;75.27
44138;BME280;29800;55.942;37.314;2023-09-19T06:29:04;99866.53;;;14.09;74.82
44138;BME280;29800;55.942;37.314;2023-09-19T06:31:33;99858.09;;;14.37;74.50
44138;BME280;29800;55.942;37.314;2023-09-19T06:34:00;99857.00;;;14.48;73.87
44138;BME280;29800;55.942;37.314;2023-09-19T06:36:26;99851.22;;;14.49;74.02
44138;BME280;29800;55.942;37.314;2023-09-19T06:38:53;99852.88;;;14.56;73.91
44138;BME280;29800;55.942;37.314;2023-09-19T06:41:19;99861.16;;;14.61;74.34
44138;BME280;29800;55.942;37.314;2023-09-19T06:43:51;99858.97;;;14.63;73.68
44138;BME280;29800;55.942;37.314;2023-09-19T06:46:19;99867.53;;;14.66;73.27
44138;BME280;29800;55.942;37.314;2023-09-19T06:48:46;99857.88;;;14.69;73.20
44138;BME280;29800;55.942;37.314;2023-09-19T06:51:13;99860.91;;;14.73;72.96
44138;BME280;29800;55.942;37.314;2023-09-19T06:53:42;99858.97;;;14.78;72.62
44138;BME280;29800;55.942;37.314;2023-09-19T06:56:08;99857.34;;;14.82;72.41
44138;BME280;29800;55.942;37.314;2023-09-19T06:58:34;99855.13;;;14.89;72.43
44138;BME280;29800;55.942;37.314;2023-09-19T07:01:02;99849.59;;;15.00;72.04
44138;BME280;29800;55.942;37.314;2023-09-19T07:03:29;99856.22;;;15.14;71.57
44138;BME280;29800;55.942;37.314;2023-09-19T07:05:56;99848.75;;;15.20;71.24
44138;BME280;29800;55.942;37.314;2023-09-19T07:08:24;99848.75;;;15.30;71.81
44138;BME280;29800;55.942;37.314;2023-09-19T07:10:51;99846.78;;;15.36;71.22
44138;BME280;29800;55.942;37.314;2023-09-19T07:13:18;99844.00;;;15.41;71.46
44138;BME280;29800;55.942;37.314;2023-09-19T07:15:45;99831.31;;;15.50;71.28
44138;BME280;29800;55.942;37.314;2023-09-19T07:18:19;99833.44;;;15.69;71.38
44138;BME280;29800;55.942;37.314;2023-09-19T07:20:46;99837.81;;;15.85;70.24
44138;BME280;29800;55.942;37.314;2023-09-19T07:23:20;99838.56;;;16.06;70.15
44138;BME280;29800;55.942;37.314;2023-09-19T07:25:49;99839.34;;;16.17;68.95
44138;BME280;29800;55.942;37.314;2023-09-19T07:28:15;99838.19;;;16.23;68.50
44138;BME280;29800;55.942;37.314;2023-09-19T07:30:42;99837.03;;;16.29;68.63
44138;BME280;29800;55.942;37.314;2023-09-19T07:33:08;99833.09;;;16.41;68.36
44138;BME280;29800;55.942;37.314;2023-09-19T07:35:38;99828.97;;;16.43;68.54
44138;BME280;29800;55.942;37.314;2023-09-19T07:38:09;99833.91;;;16.46;67.94
44138;BME280;29800;55.942;37.314;2023-09-19T07:40:37;99831.16;;;16.46;68.01
44138;BME280;29800;55.942;37.314;2023-09-19T07:43:04;99835.25;;;16.49;67.85
44138;BME280;29800;55.942;37.314;2023-09-19T07:45:33;99842.19;;;16.46;68.09
44138;BME280;29800;55.942;37.314;2023-09-19T07:48:00;99837.50;;;16.47;67.98
44138;BME280;29800;55.942;37.314;2023-09-19T07:50:30;99836.41;;;16.43;67.86
44138;BME280;29800;55.942;37.314;2023-09-19T07:52:56;99839.72;;;16.40;68.42
44138;BME280;29800;55.942;37.314;2023-09-19T07:55:23;99841.44;;;16.35;68.65
44138;BME280;29800;55.942;37.314;2023-09-19T07:57:54;99829.00;;;16.38;68.98
44138;BME280;29800;55.942;37.314;2023-09-19T08:00:21;99830.09;;;16.37;68.68
44138;BME280;29800;55.942;37.314;2023-09-19T08:02:48;99824.84;;;16.35;68.50
44138;BME280;29800;55.942;37.314;2023-09-19T08:05:18;99830.94;;;16.32;68.52
44138;BME280;29800;55.942;37.314;2023-09-19T08:07:47;99822.94;;;16.31;68.71
44138;BME280;29800;55.942;37.314;2023-09-19T08:10:15;99822.13;;;16.30;68.86
44138;BME280;29800;55.942;37.314;2023-09-19T08:12:47;99813.31;;;16.28;68.68
44138;BME280;29800;55.942;37.314;2023-09-19T08:15:18;99816.38;;;16.27;68.81
44138;BME280;29800;55.942;37.314;2023-09-19T08:17:46;99819.13;;;16.27;69.08
44138;BME280;29800;55.942;37.314;2023-09-19T08:20:14;99815.50;;;16.26;69.13
44138;BME280;29800;55.942;37.314;2023-09-19T08:22:52;99810.28;;;16.30;69.63
44138;BME280;29800;55.942;37.314;2023-09-19T08:25:21;99812.47;;;16.28;69.11
44138;BME280;29800;55.942;37.314;2023-09-19T08:27:49;99811.13;;;16.25;69.32
44138;BME280;29800;55.942;37.314;2023-09-19T08:30:23;99811.66;;;16.27;69.25
44138;BME280;29800;55.942;37.314;2023-09-19T08:32:59;99816.06;;;16.28;69.88
44138;BME280;29800;55.942;37.314;2023-09-19T08:35:29;99806.69;;;16.24;70.17
44138;BME280;29800;55.942;37.314;2023-09-19T08:37:59;99808.94;;;16.22;70.35
44138;BME280;29800;55.942;37.314;2023-09-19T08:40:30;99803.69;;;16.21;70.00
44138;BME280;29800;55.942;37.314;2023-09-19T08:42:59;99799.28;;;16.20;70.54
44138;BME280;29800;55.942;37.314;2023-09-19T08:45:27;99795.97;;;16.17;70.08
44138;BME280;29800;55.942;37.314;2023-09-19T08:50:57;99799.22;;;16.25;69.99
44138;BME280;29800;55.942;37.314;2023-09-19T08:55:55;99796.22;;;16.21;70.63
44138;BME280;29800;55.942;37.314;2023-09-19T08:58:28;99796.47;;;16.25;70.82
44138;BME280;29800;55.942;37.314;2023-09-19T09:01:03;99797.84;;;16.27;71.36
44138;BME280;29800;55.942;37.314;2023-09-19T09:03:43;99795.09;;;16.27;71.17
44138;BME280;29800;55.942;37.314;2023-09-19T09:06:15;99791.22;;;16.28;70.58
44138;BME280;29800;55.942;37.314;2023-09-19T09:08:43;99800.84;;;16.31;70.17
44138;BME280;29800;55.942;37.314;2023-09-19T09:11:11;99793.94;;;16.33;70.37
44138;BME280;29800;55.942;37.314;2023-09-19T09:13:40;99800.78;;;16.41;70.46
44138;BME280;29800;55.942;37.314;2023-09-19T09:16:11;99793.88;;;16.44;69.84
44138;BME280;29800;55.942;37.314;2023-09-19T09:18:39;99780.56;;;16.46;69.35
44138;BME280;29800;55.942;37.314;2023-09-19T09:21:07;99784.44;;;16.50;69.89
44138;BME280;29800;55.942;37.314;2023-09-19T09:23:34;99782.16;;;16.57;70.53
44138;BME280;29800;55.942;37.314;2023-09-19T09:26:05;99778.25;;;16.63;69.88
44138;BME280;29800;55.942;37.314;2023-09-19T09:28:45;99780.31;;;16.77;69.28
44138;BME280;29800;55.942;37.314;2023-09-19T09:31:23;99783.63;;;16.79;69.07
44138;BME280;29800;55.942;37.314;2023-09-19T09:33:54;99783.03;;;16.82;68.72
44138;BME280;29800;55.942;37.314;2023-09-19T09:36:38;99778.84;;;16.89;68.25
44138;BME280;29800;55.942;37.314;2023-09-19T09:39:05;99768.63;;;16.90;68.64
44138;BME280;29800;55.942;37.314;2023-09-19T09:41:49;99767.97;;;16.98;67.69
44138;BME280;29800;55.942;37.314;2023-09-19T09:44:19;99773.94;;;17.11;67.74
44138;BME280;29800;55.942;37.314;2023-09-19T09:46:48;99765.47;;;17.26;67.79
44138;BME280;29800;55.942;37.314;2023-09-19T09:49:26;99759.47;;;17.43;67.00
44138;BME280;29800;55.942;37.314;2023-09-19T09:52:07;99755.84;;;17.67;66.59
44138;BME280;29800;55.942;37.314;2023-09-19T09:55:04;99768.38;;;17.83;65.97
44138;BME280;29800;55.942;37.314;2023-09-19T09:57:34;99760.06;;;17.83;65.44
44138;BME280;29800;55.942;37.314;2023-09-19T10:00:05;99754.09;;;17.95;65.44
44138;BME280;29800;55.942;37.314;2023-09-19T10:02:48;99744.09;;;17.99;64.90
44138;BME280;29800;55.942;37.314;2023-09-19T10:05:18;99749.56;;;18.04;64.93
44138;BME280;29800;55.942;37.314;2023-09-19T10:07:57;99745.81;;;18.14;64.67
44138;BME280;29800;55.942;37.314;2023-09-19T10:10:46;99733.38;;;18.30;64.56
44138;BME280;29800;55.942;37.314;2023-09-19T10:13:21;99735.97;;;18.41;65.63
44138;BME280;29800;55.942;37.314;2023-09-19T10:15:54;99728.94;;;18.62;64.29
44138;BME280;29800;55.942;37.314;2023-09-19T10:18:36;99726.72;;;18.78;64.04
44138;BME280;29800;55.942;37.314;2023-09-19T10:21:10;99727.59;;;18.92;63.85
44138;BME280;29800;55.942;37.314;2023-09-19T10:23:42;99732.34;;;19.06;62.73
44138;BME280;29800;55.942;37.314;2023-09-19T10:26:19;99724.31;;;19.18;62.43
44138;BME280;29800;55.942;37.314;2023-09-19T10:28:54;99715.47;;;19.44;63.51
44138;BME280;29800;55.942;37.314;2023-09-19T10:31:29;99716.59;;;19.43;61.98
44138;BME280;29800;55.942;37.314;2023-09-19T10:34:05;99717.44;;;19.43;62.43
44138;BME280;29800;55.942;37.314;2023-09-19T10:36:37;99711.59;;;19.45;61.74
44138;BME280;29800;55.942;37.314;2023-09-19T10:39:12;99715.97;;;19.46;62.39
44138;BME280;29800;55.942;37.314;2023-09-19T10:41:42;99715.47;;;19.44;61.69
44138;BME280;29800;55.942;37.314;2023-09-19T10:44:13;99712.91;;;19.47;61.65
44138;BME280;29800;55.942;37.314;2023-09-19T10:46:44;99714.25;;;19.50;62.63
44138;BME280;29800;55.942;37.314;2023-09-19T10:49:23;99705.38;;;19.62;63.06
44138;BME280;29800;55.942;37.314;2023-09-19T10:51:55;99711.63;;;19.68;61.21
44138;BME280;29800;55.942;37.314;2023-09-19T10:54:35;99708.16;;;19.76;63.22
44138;BME280;29800;55.942;37.314;2023-09-19T10:57:15;99706.28;;;19.85;61.37
44138;BME280;29800;55.942;37.314;2023-09-19T11:00:16;99703.66;;;20.02;61.17
44138;BME280;29800;55.942;37.314;2023-09-19T11:06:00;99699.38;;;20.19;60.42
44138;BME280;29800;55.942;37.314;2023-09-19T11:08:28;99693.38;;;20.26;60.03
44138;BME280;29800;55.942;37.314;2023-09-19T11:11:40;99686.44;;;20.37;60.03
44138;BME280;29800;55.942;37.314;2023-09-19T11:25:44;99666.78;;;20.11;61.59
44138;BME280;29800;55.942;37.314;2023-09-19T11:28:28;99663.38;;;20.14;61.69
44138;BME280;29800;55.942;37.314;2023-09-19T11:40:12;99658.69;;;20.23;62.90
44138;BME280;29800;55.942;37.314;2023-09-19T11:42:46;99661.47;;;20.23;62.09
44138;BME280;29800;55.942;37.314;2023-09-19T11:48:18;99653.56;;;20.39;61.16
44138;BME280;29800;55.942;37.314;2023-09-19T11:50:53;99654.69;;;20.38;60.85
44138;BME280;29800;55.942;37.314;2023-09-19T11:53:21;99649.84;;;20.44;61.22
44138;BME280;29800;55.942;37.314;2023-09-19T11:55:52;99647.59;;;20.54;60.38
44138;BME280;29800;55.942;37.314;2023-09-19T11:58:20;99642.50;;;20.48;60.88
44138;BME280;29800;55.942;37.314;2023-09-19T12:00:54;99648.44;;;20.55;61.00
44138;BME280;29800;55.942;37.314;2023-09-19T12:03:35;99642.38;;;20.53;61.39
44138;BME280;29800;55.942;37.314;2023-09-19T12:06:13;99631.91;;;20.50;60.54
44138;BME280;29800;55.942;37.314;2023-09-19T12:08:43;99633.53;;;20.51;61.05
44138;BME280;29800;55.942;37.314;2023-09-19T12:11:21;99630.75;;;20.51;61.20
44138;BME280;29800;55.942;37.314;2023-09-19T12:14:00;99628.97;;;20.55;61.09
44138;BME280;29800;55.942;37.314;2023-09-19T12:16:33;99620.13;;;20.53;61.83
44138;BME280;29800;55.942;37.314;2023-09-19T12:19:25;99615.31;;;20.67;61.16
44138;BME280;29800;55.942;37.314;2023-09-19T12:22:03;99629.22;;;20.67;61.38
44138;BME280;29800;55.942;37.314;2023-09-19T12:24:39;99614.19;;;20.68;62.18
44138;BME280;29800;55.942;37.314;2023-09-19T12:27:17;99609.97;;;20.80;62.08
44138;BME280;29800;55.942;37.314;2023-09-19T12:29:56;99605.13;;;20.94;62.01
44138;BME280;29800;55.942;37.314;2023-09-19T12:32:38;99604.97;;;21.08;60.72
44138;BME280;29800;55.942;37.314;2023-09-19T12:35:08;99597.44;;;21.08;60.24
44138;BME280;29800;55.942;37.314;2023-09-19T12:37:42;99594.84;;;21.21;60.74
44138;BME280;29800;55.942;37.314;2023-09-19T12:40:15;99592.25;;;21.33;60.92
44138;BME280;29800;55.942;37.314;2023-09-19T12:42:46;99589.50;;;21.51;61.14
44138;BME280;29800;55.942;37.314;2023-09-19T12:45:19;99581.50;;;21.66;60.78
44138;BME280;29800;55.942;37.314;2023-09-19T12:51:11;99580.47;;;22.06;59.86
44138;BME280;29800;55.942;37.314;2023-09-19T12:53:47;99577.78;;;22.18;59.09
44138;BME280;29800;55.942;37.314;2023-09-19T12:56:23;99577.16;;;22.30;58.96
44138;BME280;29800;55.942;37.314;2023-09-19T12:58:58;99573.66;;;22.42;58.03
44138;BME280;29800;55.942;37.314;2023-09-19T13:01:29;99572.34;;;22.48;57.74
44138;BME280;29800;55.942;37.314;2023-09-19T13:04:26;99566.84;;;22.61;58.92
44138;BME280;29800;55.942;37.314;2023-09-19T13:07:42;99567.66;;;22.70;58.38
44138;BME280;29800;55.942;37.314;2023-09-19T13:10:13;99572.38;;;22.69;57.48
44138;BME280;29800;55.942;37.314;2023-09-19T13:12:45;99567.94;;;22.77;57.61
44138;BME280;29800;55.942;37.314;2023-09-19T13:15:14;99564.94;;;22.82;57.52
44138;BME280;29800;55.942;37.314;2023-09-19T13:17:55;99563.25;;;22.90;57.24
44138;BME280;29800;55.942;37.314;2023-09-19T13:20:26;99560.63;;;22.93;56.64
44138;BME280;29800;55.942;37.314;2023-09-19T13:22:54;99565.81;;;23.04;56.52
44138;BME280;29800;55.942;37.314;2023-09-19T13:25:27;99555.47;;;23.04;55.57
44138;BME280;29800;55.942;37.314;2023-09-19T13:27:57;99553.81;;;23.03;56.08
44138;BME280;29800;55.942;37.314;2023-09-19T13:30:30;99549.75;;;23.01;55.67
44138;BME280;29800;55.942;37.314;2023-09-19T13:33:11;99553.56;;;22.96;55.67
44138;BME280;29800;55.942;37.314;2023-09-19T13:35:40;99549.56;;;22.76;56.60
44138;BME280;29800;55.942;37.314;2023-09-19T13:38:07;99547.13;;;22.66;57.02
44138;BME280;29800;55.942;37.314;2023-09-19T13:40:45;99551.13;;;22.56;57.34
44138;BME280;29800;55.942;37.314;2023-09-19T13:43:12;99541.00;;;22.51;57.51
44138;BME280;29800;55.942;37.314;2023-09-19T13:45:42;99547.25;;;22.48;57.89
44138;BME280;29800;55.942;37.314;2023-09-19T13:48:09;99540.03;;;22.47;57.68
44138;BME280;29800;55.942;37.314;2023-09-19T13:50:42;99536.41;;;22.47;57.58
44138;BME280;29800;55.942;37.314;2023-09-19T13:53:09;99536.09;;;22.48;57.81
44138;BME280;29800;55.942;37.314;2023-09-19T13:55:38;99522.16;;;22.48;58.19
44138;BME280;29800;55.942;37.314;2023-09-19T13:58:05;99526.56;;;22.49;58.34
44138;BME280;29800;55.942;37.314;2023-09-19T14:00:36;99529.34;;;22.49;58.30